Airfield :
LOGIN :

Register | Disclaimer

   EN    FR    IT 

 










Legend :    VFR   Marginal VFR   IFR   Intensive IFR   Very Intensive IFR
Visi :
Ceiling :
>= 8 km
>= 3000ft
5 to 8 km
1000 to 3000 ft
1500m to 5 km
500 to 1000 ft
800 to 1500m
200 to 500 ft
< 800m
< 200 ft
Symbols :   Thunderstorms  Fog  Heavy snow  Heavy precipitations  Wind > 20 kt
SIGMETs :     Misc.  Thunderstorms  Icing  Turbulence  Mountain Waves  Volcanic Ashes






- Airport Elevation : 188 ft
- IATA code : ORB


ESOE - Örebro

CURRENT METAR :
  • 070050Z AUTO 20008KT 9999 -RA OVC009/// 08/07 Q0985

EXPIRED METARs :
  • 070020Z AUTO 20007KT 9999 -RA BKN009/// 08/07 Q0986
  • 062350Z AUTO 20005KT 1800 -RA VV005 08/07 Q0986
  • 062320Z AUTO 17003KT 130V190 2700 -RA SCT001/// BKN007/// 08/07 Q0986
  • 062250Z AUTO 12004KT 2400 DZ FEW000/// SCT005/// BKN011/// 07/07 Q0987 REDZ
  • 062220Z AUTO 11005KT 1800 DZ SCT001/// 07/06 Q0987

Expired Forecast.



MET'MAP, your aeronautical weather chart ! - Copyright ORBIFLY December 2007 - Disclaimer

ORBIFLY MET'MAP TEAM :

Programming & Development : Alexandra Zaïnal
Concept & original design : Baudouin d'Aumeries
Assistance for programming : Marc-Olivier Méhu
Technical & hardware support : Manuel Goepfert

Contact : metmap@orbifly.com




SOURCES & CREDITS :

   NOAA